Station: Edithburgh  

  Atmospheric Gas Attenuation - ITU Rec 676-11   ----------------- dB/100km -----------------
Date Time Temp RH % AH g/m3 Dew Point Wind Direction Speed kph Gust kph Barometer mB Rainfall Since 9am 24GHz 47GHz 76GHz 122GHz 134GHz 241GHz
03/05 02:30 12.2 87 9.39 10.1 17 20 1008.8 4.8 21.4 27.5 43.7 114.9 110.9 382.0
03/05 02:20 12.4 83 9.07 9.6 20 24 1008.9 4.8 20.7 26.9 42.2 111.0 106.2 365.7
03/05 02:10 12.3 83 9.01 9.5 19 22 1008.9 4.8 20.5 26.8 42.0 110.5 105.5 363.3
03/05 02:00 12.4 83 9.07 9.6 22 32 1008.9 4.8 20.7 26.9 42.2 111.0 106.2 365.7
03/05 01:50 13 84 9.53 10.3 30 37 1009.1 4.8 21.6 27.5 43.8 115.3 111.7 384.9
03/05 01:40 13.9 83 9.95 11 26 32 1009.1 4.8 22.5 27.9 45.1 118.7 116.1 400.6
03/05 01:30 14 83 10.01 11.2 20 30 1009.1 4.8 22.6 28.0 45.3 119.2 116.8 403.0
03/05 01:20 13.8 83 9.89 10.9 19 22 1009.2 4.8 22.4 27.9 44.9 118.1 115.5 398.2
03/05 01:10 13.9 81 9.71 10.8 22 28 1009.2 4.8 22.0 27.5 44.1 116.0 112.8 389.1
03/05 01:00 14.1 81 9.83 10.9 24 30 1009.2 4.8 22.2 27.7 44.5 117.0 114.2 393.8
03/05 00:50 14.3 80 9.83 11 26 32 1009.3 4.8 22.2 27.6 44.4 116.7 113.9 392.8
03/05 00:40 14 81 9.77 10.9 20 24 1009.4 4.8 22.1 27.6 44.3 116.5 113.5 391.5
03/05 00:30 14.1 82 9.95 11.1 26 35 1009.4 4.8 22.5 27.9 45.0 118.4 115.9 399.6
03/05 00:20 14.1 80 9.71 10.7 32 37 1009.3 4.8 22.0 27.5 44.0 115.7 112.6 388.1
03/05 00:10 14.6 80 10.01 11.2 22 24 1009.4 4.8 22.6 27.8 45.0 118.3 115.9 400.0
03/05 00:00 14.6 79 9.89 11 26 32 1009.5 4.8 22.3 27.6 44.5 117.0 114.3 394.2
02/05 23:50 14.5 79 9.83 10.9 26 30 1009.4 4.8 22.2 27.6 44.3 116.4 113.6 391.9
02/05 23:40 14.5 78 9.7 10.7 30 35 1009.4 4.8 21.9 27.3 43.7 115.0 111.8 385.7
02/05 23:30 14.4 77 9.52 10.4 28 33 1009.4 4.8 21.5 27.1 43.0 113.2 109.6 377.6
02/05 23:20 14.5 76 9.45 10.3 28 33 1009.5 4.8 21.4 26.9 42.7 112.3 108.5 373.9
02/05 23:10 14.5 78 9.7 10.7 33 37 1009.4 4.8 21.9 27.3 43.7 115.0 111.8 385.7
02/05 23:00 14.2 79 9.65 10.6 26 32 1009.7 4.8 21.8 27.4 43.7 114.9 111.6 384.9
02/05 22:50 14.5 77 9.58 10.5 26 30 1009.7 4.8 21.7 27.2 43.2 113.7 110.2 380.1
02/05 22:40 14.3 77 9.46 10.3 26 30 1009.7 4.8 21.4 27.0 42.9 112.7 108.9 375.4
02/05 22:30 14.4 76 9.39 10.2 24 32 1009.8 4.8 21.3 26.9 42.5 111.8 107.8 371.6
02/05 22:20 14.4 75 9.27 10 26 32 1010 4.8 21.0 26.7 42.0 110.5 106.2 366.1
02/05 22:10 14.3 75 9.21 9.9 28 32 1010 4.8 20.9 26.6 41.9 110.0 105.6 363.7
02/05 22:00 14.4 75 9.27 10 26 35 1010 4.8 21.0 26.7 42.0 110.5 106.2 366.1
02/05 21:50 14.7 72 9.07 9.7 30 37 1009.8 4.8 20.6 26.3 41.1 107.9 103.2 355.3
02/05 21:40 14.7 73 9.19 9.9 28 33 1009.9 4.8 20.8 26.5 41.6 109.2 104.8 360.9
02/05 21:30 14.9 72 9.18 9.9 28 35 1009.9 4.8 20.8 26.4 41.4 108.8 104.4 359.5
02/05 21:20 14.8 71 8.99 9.6 28 30 1009.8 4.8 20.4 26.1 40.7 106.9 102.0 351.2
02/05 21:10 14.7 72 9.07 9.7 22 28 1009.8 4.8 20.6 26.3 41.1 107.9 103.2 355.3
02/05 21:00 14.5 73 9.08 9.7 20 28 1009.9 4.8 20.6 26.3 41.2 108.3 103.6 356.7
02/05 20:50 14.5 72 8.96 9.5 22 24 1009.7 4.8 20.3 26.1 40.7 107.0 102.0 351.1
02/05 20:40 14.8 71 8.99 9.6 24 28 1009.6 4.8 20.4 26.1 40.7 106.9 102.0 351.1
02/05 20:30 15 71 9.1 9.8 26 33 1009.6 4.8 20.6 26.2 41.0 107.8 103.1 355.3
02/05 20:20 15.3 69 9.01 9.8 26 32 1009.5 4.8 20.4 26.0 40.5 106.4 101.5 349.8
02/05 20:10 15.2 68 8.83 9.3 24 28 1009.4 4.8 20.0 25.7 39.8 104.6 99.3 341.9
02/05 20:00 15.1 69 8.9 9.5 24 32 1009.4 4.8 20.2 25.9 40.2 105.5 100.4 345.6
02/05 19:50 15.4 68 8.93 9.5 26 30 1009.3 4.8 20.2 25.8 40.1 105.4 100.4 345.6
02/05 19:40 15.1 72 9.29 10.1 20 26 1009.3 4.8 21.0 26.5 41.7 109.7 105.5 363.5
02/05 19:30 15 74 9.49 10.4 20 26 1009.3 4.8 21.4 26.8 42.6 112.0 108.3 373.3
02/05 19:20 14.8 75 9.5 10.4 19 19 1009.3 4.8 21.5 26.9 42.7 112.4 108.7 374.7
02/05 19:10 14.6 75 9.39 10.2 17 19 1009.2 4.8 21.2 26.8 42.4 111.4 107.5 370.5
02/05 19:00 14.8 75 9.5 10.4 20 24 1009.2 4.8 21.5 26.9 42.7 112.4 108.7 374.7
02/05 18:50 14.2 79 9.65 10.6 19 20 1009 4.8 21.8 27.3 43.7 114.9 111.6 384.7
02/05 18:40 14.2 80 9.77 10.9 11 13 1009 4.8 22.1 27.5 44.2 116.2 113.2 390.4
02/05 18:30 14.5 81 10.07 11.3 11 15 1009 4.8 22.7 27.9 45.3 119.1 116.9 403.2
02/05 18:20 15.2 78 10.12 11.4 13 15 1008.9 4.8 22.8 27.8 45.1 118.5 116.5 402.0
02/05 18:10 15.6 78 10.37 11.9 17 20 1008.8 4.8 23.3 28.1 45.9 120.7 119.3 411.8
02/05 18:00 15.7 78 10.44 11.9 15 17 1008.8 4.8 23.4 28.2 46.1 121.3 120.1 414.6
02/05 17:50 16.2 73 10.07 11.5 20 20 1008.5 4.8 22.6 27.4 44.3 116.4 114.3 394.4
02/05 17:40 16.3 72 9.99 11.2 19 20 1008.6 4.8 22.4 27.2 43.9 115.4 113.1 390.1
02/05 17:30 16.4 71 9.91 11.1 20 28 1008.5 4.8 22.3 27.1 43.5 114.4 111.8 385.9
02/05 17:20 16.9 70 10.07 11.4 24 30 1008.5 4.8 22.6 27.2 43.9 115.4 113.2 390.8
02/05 17:10 16.9 68 9.78 11.1 20 22 1008.3 4.8 22.0 26.7 42.7 112.3 109.4 377.4
02/05 17:00 17.3 66 9.72 10.9 24 37 1008.3 4.8 21.8 26.5 42.2 111.1 108.0 372.7
02/05 16:50 17.5 67 9.99 11.3 20 26 1008.3 4.8 22.4 26.9 43.2 113.7 111.3 384.1
02/05 16:40 17.6 65 9.75 10.9 26 30 1008.1 4.8 21.9 26.4 42.2 110.9 108.0 372.6
02/05 16:30 17.8 63 9.56 10.7 32 41 1008 4.8 21.4 26.1 41.3 108.7 105.2 363.0
02/05 16:20 18.8 67 10.79 12.5 26 30 1007.9 4.8 24.0 27.7 45.7 120.3 119.9 414.3
02/05 16:10 18.6 70 11.14 13 24 30 1008 4.8 24.8 28.4 47.2 124.4 124.9 431.7
02/05 16:00 18.5 63 9.97 11.3 24 32 1008 4.8 22.3 26.5 42.6 112.0 109.6 378.3
02/05 15:50 18 70 10.75 12.6 22 26 1008 4.8 24.0 27.9 46.0 121.1 120.6 416.7
02/05 15:40 17.8 74 11.23 13.1 22 28 1007.9 4.8 25.0 28.8 48.1 126.6 127.4 440.5
02/05 15:30 17.7 75 11.31 13.2 24 33 1007.9 4.8 25.2 29.0 48.5 127.7 128.7 444.8
02/05 15:20 17.7 77 11.62 13.6 20 24 1008 4.8 25.8 29.5 49.8 131.2 132.9 459.8
02/05 15:10 17.5 77 11.48 13.4 22 26 1007.9 4.8 25.6 29.3 49.3 129.9 131.3 454.2
02/05 15:00 17.6 78 11.7 13.7 26 33 1008 4.8 26.0 29.6 50.2 132.2 134.2 464.3
02/05 14:50 17.8 79 11.99 14.1 30 33 1007.8 4.8 26.6 30.1 51.3 135.2 137.9 477.1
02/05 14:40 17.5 80 11.93 14 30 35 1008 4.8 26.5 30.1 51.2 135.0 137.6 476.1
02/05 14:30 17.1 83 12.08 14.2 24 37 1008 4.8 26.9 30.5 52.1 137.4 140.4 485.9
02/05 14:20 16.9 83 11.94 14.1 22 28 1007.9 4.8 26.6 30.3 51.7 136.2 138.8 480.2
02/05 14:10 16.8 85 12.15 14.2 20 26 1007.8 4.8 27.0 30.7 52.6 138.8 142.0 491.2
02/05 14:00 16.3 85 11.79 13.8 24 33 1007.8 4.8 26.3 30.2 51.4 135.5 137.8 476.5
02/05 13:50 16.5 88 12.36 14.6 30 39 1008.1 4.8 27.5 31.2 53.8 141.8 145.6 503.8
02/05 13:40 16.2 91 12.55 14.7 22 28 1008 4.8 27.9 31.6 54.8 144.6 148.9 515.4
02/05 13:30 16 91 12.4 14.5 20 32 1008.1 4.8 27.6 31.4 54.3 143.2 147.1 509.1
02/05 13:20 15.8 90 12.11 14.1 24 28 1008.2 4.8 27.0 31.0 53.2 140.2 143.3 495.8
02/05 13:10 16.3 90 12.49 14.6 28 35 1008.1 4.8 27.8 31.5 54.5 143.7 147.9 511.7
02/05 13:00 16.3 90 12.49 14.7 26 33 1008.2 4.6 27.8 31.5 54.5 143.7 147.9 511.7
02/05 12:50 16 90 12.26 14.3 33 39 1008.5 4.6 27.3 31.2 53.7 141.6 145.2 502.2
02/05 12:40 16.2 92 12.69 14.9 28 33 1008.5 4.4 28.2 31.9 55.5 146.3 151.0 522.7
02/05 12:30 16.1 92 12.61 14.8 28 33 1008 4.4 28.1 31.8 55.2 145.5 150.0 519.1
02/05 12:20 16.8 94 13.44 15.8 26 30 1008.2 4.4 29.8 33.0 58.4 154.1 160.8 556.9
02/05 12:10 16 94 12.81 15 19 20 1008.5 4.4 28.5 32.2 56.1 148.1 153.2 530.2
02/05 12:00 15.8 93 12.52 14.7 24 32 1008.8 3.8 27.9 31.8 55.0 145.1 149.4 516.9
02/05 11:50 16 93 12.67 14.8 28 32 1009.2 3.6 28.2 32.0 55.6 146.5 151.2 523.3
02/05 11:40 16.2 93 12.82 15 17 20 1008.5 3.6 28.5 32.1 56.0 147.9 152.9 529.3
02/05 11:30 15.9 92 12.46 14.6 17 24 1008.5 3.4 27.8 31.6 54.7 144.1 148.3 513.0
02/05 11:20 15.8 90 12.11 14.1 22 26 1009.2 3.2 27.0 31.0 53.2 140.3 143.4 496.2
02/05 11:10 16.5 81 11.37 13.2 35 44 1009.2 1.2 25.4 29.5 49.5 130.5 131.7 455.2
02/05 11:00 17.3 77 11.34 13.2 30 37 1009 0 25.3 29.2 48.9 128.8 129.9 449.0
02/05 10:50 18.1 77 11.9 14 26 32 1008.7 0 26.4 29.8 50.7 133.7 136.2 471.2
02/05 10:40 18.3 76 11.88 14 24 30 1008.5 0 26.4 29.7 50.5 133.1 135.5 468.9
02/05 10:30 18.4 76 11.95 14.1 22 32 1008.6 0 26.5 29.8 50.7 133.8 136.3 471.7
02/05 10:20 18.2 78 12.12 14.3 20 28 1008.8 0 26.9 30.2 51.6 136.1 139.1 481.3
02/05 10:10 18.1 80 12.36 14.6 24 28 1008.8 0 27.4 30.6 52.7 139.0 142.6 493.7
02/05 10:00 18.1 81 12.51 14.8 28 39 1008.8 0 27.7 30.9 53.3 140.7 144.8 501.1

Last Refresh: 03-May-2026 02:44:07

Bureau of Meteorology